KLSF/LSF METAR and TAF weather

Enter ICAO airport designator
Station Type Date Time Source
KLSF METAR 2019/10/18 11:56 UTC NOAA

KLSF 181156Z AUTO 00000KT 10SM CLR 09/09 A2996 RMK AO2 SLPNO T00910091 10103 20086 53005


Station Type Date Time Source
KLSF Decoded METAR 2019/10/18 11:56 UTC NOAA

Fort Benning, GA, United States (KLSF) 32-20N 084-50W 130M
Oct 18, 2019 - 07:56 AM EDT / 2019.10.18 1156 UTC
Wind: Calm:0
Visibility: 10 mile(s):0
Sky conditions: clear
Temperature: 48.4 F (9.1 C)
Dew Point: 48.4 F (9.1 C)
Relative Humidity: 100%
Pressure (altimeter): 29.96 in. Hg (1014 hPa)
Pressure tendency: 0.01 inches (0.5 hPa) higher than three hours ago
ob: KLSF 181156Z AUTO 00000KT 10SM CLR 09/09 A2996 RMK AO2 SLPNO T00910091 10103 20086 53005
cycle: 12

Station Type Date Time Source
KLSF TAF 2019/10/18 11:33 UTC NOAA

TAF TAF
AMD KLSF 181100Z 1811/1915 VRB06KT 9999 FEW330 WS010/04030KT QNH2992INS
BECMG 1816/1817 09006KT 9999 FEW290 QNH2991INS
BECMG 1903/1904 07006KT 9999 SCT060 QNH2990INS
BECMG 1907/1908 08015KT 9999 VCSH SCT008 BKN015 QNH2986INS
BECMG 1909/1910 08015G30KT 6000 -SHRA OVC007 QNH2985INS
BECMG 1910/1911 07015G25KT 8000 -SHRA BKN003 QNH2983INS TX18/1820Z TN09/1812Z

Example: see airport list